createdAt,value
2022-10-29T00:00:01.899Z,13.12
2022-10-29T00:00:16.282Z,12.00
2022-10-29T00:00:23.730Z,11.78
2022-10-29T00:00:31.178Z,13.04
2022-10-29T00:00:39.136Z,14.77
2022-10-29T00:00:50.717Z,15.63
2022-10-29T00:00:58.278Z,16.40
2022-10-29T00:01:05.752Z,15.70
2022-10-29T00:01:13.177Z,15.57
2022-10-29T00:01:32.978Z,12.45
2022-10-29T00:01:40.485Z,12.07
2022-10-29T00:01:48.048Z,13.18
2022-10-29T00:01:55.588Z,14.93
2022-10-29T00:02:03.167Z,14.43
2022-10-29T00:02:22.925Z,14.32
2022-10-29T00:02:30.369Z,14.10
2022-10-29T00:02:37.906Z,14.43
2022-10-29T00:02:45.557Z,14.16
2022-10-29T00:02:53.282Z,14.93
2022-10-29T00:03:13.248Z,15.36
2022-10-29T00:03:21.576Z,12.82
2022-10-29T00:03:29.144Z,13.73
2022-10-29T00:03:37.279Z,15.33
2022-10-29T00:03:44.828Z,15.61
2022-10-29T00:03:52.337Z,15.28
2022-10-29T00:04:12.199Z,15.39
2022-10-29T00:04:19.772Z,14.95
2022-10-29T00:04:27.271Z,14.93
2022-10-29T00:04:34.730Z,16.68
2022-10-29T00:04:54.544Z,23.42
2022-10-29T00:05:02.031Z,22.40
2022-10-29T00:05:09.684Z,16.60
2022-10-29T00:05:17.242Z,15.62
2022-10-29T00:05:24.912Z,15.22
2022-10-29T00:05:32.534Z,14.70
2022-10-29T00:06:03.144Z,15.76
2022-10-29T00:06:12.349Z,16.15
2022-10-29T00:06:19.881Z,15.81
2022-10-29T00:06:28.590Z,14.66
2022-10-29T00:06:36.582Z,14.24
2022-10-29T00:06:44.113Z,12.30
2022-10-29T00:06:51.635Z,12.50
2022-10-29T00:06:59.116Z,13.98
2022-10-29T00:07:06.530Z,14.83
2022-10-29T00:07:13.958Z,17.43
2022-10-29T00:07:33.642Z,16.34
2022-10-29T00:07:41.044Z,15.67
2022-10-29T00:07:48.511Z,14.02
2022-10-29T00:07:56.339Z,13.37
2022-10-29T00:08:04.384Z,13.95
2022-10-29T00:08:24.246Z,15.07
2022-10-29T00:08:33.428Z,14.33
2022-10-29T00:08:42.135Z,15.06
2022-10-29T00:08:49.578Z,15.51
2022-10-29T00:08:57.015Z,15.48
2022-10-29T00:09:05.209Z,15.10
2022-10-29T00:09:12.640Z,13.61
2022-10-29T00:09:32.286Z,16.80
2022-10-29T00:09:39.758Z,15.60
2022-10-29T00:09:47.138Z,15.78
2022-10-29T00:09:54.599Z,13.80
2022-10-29T00:10:14.445Z,14.25
2022-10-29T00:10:21.858Z,16.22
2022-10-29T00:10:30.082Z,17.46
2022-10-29T00:10:37.529Z,19.37
2022-10-29T00:10:44.885Z,18.77
2022-10-29T00:11:12.098Z,15.86
2022-10-29T00:11:21.460Z,14.24
2022-10-29T00:11:28.890Z,14.47
2022-10-29T00:11:36.369Z,13.92
2022-10-29T00:11:43.731Z,14.37
2022-10-29T00:11:51.075Z,15.28
2022-10-29T00:11:58.478Z,15.48
2022-10-29T00:12:06.188Z,15.28
2022-10-29T00:12:13.573Z,16.30
2022-10-29T00:12:33.441Z,15.36
2022-10-29T00:12:40.824Z,13.67
2022-10-29T00:12:48.311Z,13.53
2022-10-29T00:12:55.950Z,13.73
2022-10-29T00:13:04.434Z,13.40
2022-10-29T00:13:24.524Z,13.31
2022-10-29T00:13:31.948Z,13.75
2022-10-29T00:13:40.038Z,13.73
2022-10-29T00:13:49.100Z,12.90
2022-10-29T00:13:59.332Z,12.24
2022-10-29T00:14:06.747Z,12.20
2022-10-29T00:14:14.152Z,12.30
2022-10-29T00:14:33.917Z,12.50
2022-10-29T00:14:41.271Z,11.82
2022-10-29T00:14:48.664Z,11.77
2022-10-29T00:14:56.068Z,11.20
2022-10-29T00:15:04.079Z,10.55
2022-10-29T00:15:24.086Z,13.65
2022-10-29T00:15:31.441Z,13.33
2022-10-29T00:15:41.736Z,15.67
2022-10-29T00:15:49.240Z,13.61
2022-10-29T00:15:56.577Z,13.55
2022-10-29T00:16:11.360Z,14.37
2022-10-29T00:16:21.246Z,15.05
2022-10-29T00:16:34.696Z,16.79
2022-10-29T00:16:42.157Z,15.80
2022-10-29T00:16:49.499Z,13.17
2022-10-29T00:16:57.396Z,14.24
2022-10-29T00:17:04.904Z,12.67
2022-10-29T00:17:12.382Z,12.88
2022-10-29T00:17:32.109Z,13.18
2022-10-29T00:17:39.511Z,15.28
2022-10-29T00:17:46.998Z,15.50
2022-10-29T00:17:54.710Z,17.47
2022-10-29T00:18:02.378Z,17.82
2022-10-29T00:18:22.049Z,19.39
2022-10-29T00:18:30.984Z,17.07
2022-10-29T00:18:38.422Z,15.27
2022-10-29T00:18:46.320Z,15.23
2022-10-29T00:18:55.157Z,13.92
2022-10-29T00:19:02.953Z,13.10
2022-10-29T00:19:22.866Z,10.44
2022-10-29T00:19:30.269Z,11.62
2022-10-29T00:19:37.732Z,14.60
2022-10-29T00:19:45.202Z,14.80
2022-10-29T00:19:52.671Z,15.75
2022-10-29T00:20:12.483Z,12.11
2022-10-29T00:20:21.178Z,11.63
2022-10-29T00:20:28.622Z,12.86
2022-10-29T00:20:35.976Z,15.76
2022-10-29T00:20:43.676Z,17.20
2022-10-29T00:20:59.744Z,17.53
2022-10-29T00:21:10.646Z,17.01
2022-10-29T00:21:22.604Z,15.37
2022-10-29T00:21:30.287Z,13.86
2022-10-29T00:21:38.242Z,13.73
2022-10-29T00:21:45.624Z,14.37
2022-10-29T00:21:53.017Z,15.03
2022-10-29T00:22:12.800Z,13.86
2022-10-29T00:22:20.435Z,12.64
2022-10-29T00:22:27.898Z,12.33
2022-10-29T00:22:35.298Z,12.17
2022-10-29T00:22:42.723Z,11.93
2022-10-29T00:22:54.473Z,12.73
2022-10-29T00:23:14.554Z,9.93
2022-10-29T00:23:21.930Z,10.00
2022-10-29T00:23:29.697Z,12.28
2022-10-29T00:23:37.118Z,14.73
2022-10-29T00:23:44.707Z,14.93
2022-10-29T00:23:53.175Z,15.30
2022-10-29T00:24:13.070Z,14.47
2022-10-29T00:24:20.471Z,14.43
2022-10-29T00:24:27.910Z,16.02
2022-10-29T00:24:35.599Z,15.32
2022-10-29T00:24:43.041Z,13.47
2022-10-29T00:25:02.716Z,15.90
2022-10-29T00:25:10.231Z,16.07
2022-10-29T00:25:17.632Z,15.78
2022-10-29T00:25:25.048Z,14.50
2022-10-29T00:25:32.412Z,14.37
2022-10-29T00:25:57.044Z,15.23
2022-10-29T00:26:04.826Z,15.69
2022-10-29T00:26:12.946Z,15.23
2022-10-29T00:26:22.287Z,14.03
2022-10-29T00:26:30.428Z,12.97
2022-10-29T00:26:37.837Z,12.97
2022-10-29T00:26:45.346Z,14.50
2022-10-29T00:26:52.783Z,14.86
2022-10-29T00:27:12.582Z,14.54
2022-10-29T00:27:20.018Z,11.80
2022-10-29T00:27:27.600Z,12.20
2022-10-29T00:27:35.015Z,11.90
2022-10-29T00:27:42.442Z,10.97
2022-10-29T00:28:02.152Z,13.24
2022-10-29T00:28:09.558Z,14.07
2022-10-29T00:28:16.958Z,14.16
2022-10-29T00:28:24.549Z,15.12
2022-10-29T00:28:32.687Z,14.12
2022-10-29T00:28:54.016Z,16.40
2022-10-29T00:29:01.525Z,15.79
2022-10-29T00:29:11.199Z,16.84
2022-10-29T00:29:18.618Z,16.48
2022-10-29T00:29:26.028Z,15.26
2022-10-29T00:29:33.429Z,15.42
2022-10-29T00:29:53.210Z,15.10
2022-10-29T00:30:00.614Z,16.13
2022-10-29T00:30:08.682Z,15.05
2022-10-29T00:30:16.426Z,15.70
2022-10-29T00:30:23.846Z,16.97
2022-10-29T00:30:43.558Z,16.33
2022-10-29T00:30:51.043Z,13.80
2022-10-29T00:31:02.379Z,13.82
2022-10-29T00:31:13.701Z,12.82
2022-10-29T00:31:24.478Z,12.90
2022-10-29T00:31:32.208Z,13.27
2022-10-29T00:31:39.827Z,14.10
2022-10-29T00:31:49.731Z,14.80
2022-10-29T00:31:57.305Z,13.79
2022-10-29T00:32:05.072Z,13.90
2022-10-29T00:32:12.847Z,17.32
2022-10-29T00:32:32.821Z,18.13
2022-10-29T00:32:40.214Z,13.87
2022-10-29T00:32:47.604Z,12.80
2022-10-29T00:32:55.307Z,11.10
2022-10-29T00:33:03.088Z,10.30
2022-10-29T00:33:22.979Z,12.77
2022-10-29T00:33:30.461Z,14.90
2022-10-29T00:33:38.141Z,13.34
2022-10-29T00:33:46.694Z,12.87
2022-10-29T00:33:55.437Z,13.63
2022-10-29T00:34:03.231Z,13.42
2022-10-29T00:34:23.078Z,12.16
2022-10-29T00:34:30.575Z,11.27
2022-10-29T00:34:38.318Z,12.37
2022-10-29T00:34:45.796Z,13.77
2022-10-29T00:34:53.289Z,13.52
2022-10-29T00:35:13.070Z,13.48
2022-10-29T00:35:20.557Z,14.50
2022-10-29T00:35:28.031Z,16.67
2022-10-29T00:35:35.519Z,15.50
2022-10-29T00:35:43.005Z,15.14
2022-10-29T00:35:57.295Z,16.70
2022-10-29T00:36:19.114Z,15.69
2022-10-29T00:36:31.746Z,13.36
2022-10-29T00:36:39.410Z,11.88
2022-10-29T00:36:46.780Z,12.32
2022-10-29T00:36:54.272Z,16.42
2022-10-29T00:37:01.640Z,18.17
2022-10-29T00:37:09.204Z,18.40
2022-10-29T00:37:19.602Z,19.08
2022-10-29T00:37:27.095Z,15.50
2022-10-29T00:37:35.787Z,14.77
2022-10-29T00:37:43.321Z,14.76
2022-10-29T00:38:02.974Z,14.45
2022-10-29T00:38:10.436Z,15.54
2022-10-29T00:38:17.858Z,14.76
2022-10-29T00:38:25.322Z,15.40
2022-10-29T00:38:34.646Z,14.87
2022-10-29T00:38:42.329Z,11.89
2022-10-29T00:39:02.793Z,11.56
2022-10-29T00:39:15.505Z,13.93
2022-10-29T00:39:22.909Z,15.21
2022-10-29T00:39:30.639Z,16.05
2022-10-29T00:39:38.015Z,14.72
2022-10-29T00:39:45.509Z,14.26
2022-10-29T00:39:52.862Z,13.64
2022-10-29T00:40:12.980Z,13.85
2022-10-29T00:40:20.949Z,13.75
2022-10-29T00:40:28.296Z,15.83
2022-10-29T00:40:39.046Z,16.84
2022-10-29T00:40:46.474Z,17.30
2022-10-29T00:40:54.932Z,17.18
2022-10-29T00:41:03.981Z,14.70
2022-10-29T00:41:15.137Z,12.53
2022-10-29T00:41:28.931Z,12.80
2022-10-29T00:41:36.326Z,12.74
2022-10-29T00:41:44.380Z,15.12
2022-10-29T00:41:53.031Z,15.00
2022-10-29T00:42:17.284Z,18.14
2022-10-29T00:42:24.720Z,17.44
2022-10-29T00:42:32.114Z,15.97
2022-10-29T00:42:39.711Z,14.94
2022-10-29T00:42:47.126Z,13.52
2022-10-29T00:42:54.533Z,12.72
2022-10-29T00:43:15.808Z,11.70
2022-10-29T00:43:25.958Z,12.60
2022-10-29T00:43:35.521Z,14.35
2022-10-29T00:43:52.872Z,16.04
2022-10-29T00:44:15.639Z,18.45
2022-10-29T00:44:28.439Z,17.92
2022-10-29T00:44:36.471Z,15.11
2022-10-29T00:44:44.209Z,13.43
2022-10-29T00:44:52.102Z,13.03
2022-10-29T00:44:59.629Z,12.62
2022-10-29T00:45:12.961Z,12.35
2022-10-29T00:45:22.053Z,13.55
2022-10-29T00:45:29.549Z,13.16
2022-10-29T00:45:37.051Z,12.73
2022-10-29T00:45:53.199Z,12.94
2022-10-29T00:46:16.156Z,12.89
2022-10-29T00:46:35.464Z,13.26
2022-10-29T00:46:48.101Z,14.86
2022-10-29T00:47:18.806Z,15.41
2022-10-29T00:47:36.461Z,15.65
2022-10-29T00:47:44.236Z,16.61
2022-10-29T00:47:53.637Z,13.94
2022-10-29T00:48:01.280Z,15.26
2022-10-29T00:48:08.945Z,15.74
2022-10-29T00:48:16.773Z,14.77
2022-10-29T00:48:27.919Z,15.35
2022-10-29T00:48:45.664Z,13.32
2022-10-29T00:48:56.414Z,13.01
2022-10-29T00:49:04.487Z,13.23
2022-10-29T00:49:12.178Z,15.10
2022-10-29T00:49:21.087Z,13.70
2022-10-29T00:49:29.440Z,15.19
2022-10-29T00:49:39.291Z,14.87
2022-10-29T00:49:51.401Z,14.57
2022-10-29T00:50:10.995Z,15.18
2022-10-29T00:50:20.043Z,16.00
2022-10-29T00:50:27.451Z,14.93
2022-10-29T00:50:35.636Z,13.52
2022-10-29T00:50:44.495Z,14.50
2022-10-29T00:50:53.698Z,13.57
2022-10-29T00:51:05.630Z,14.76
2022-10-29T00:51:15.603Z,15.51
2022-10-29T00:51:23.841Z,15.24
2022-10-29T00:51:32.500Z,13.93
2022-10-29T00:51:40.217Z,12.80
2022-10-29T00:51:48.695Z,12.82
2022-10-29T00:51:57.436Z,11.53
2022-10-29T00:52:06.741Z,13.20
2022-10-29T00:52:16.238Z,14.00
2022-10-29T00:52:26.045Z,14.54
2022-10-29T00:52:35.065Z,15.07
2022-10-29T00:52:46.260Z,14.19
2022-10-29T00:52:54.403Z,14.10
2022-10-29T00:53:02.633Z,14.77
2022-10-29T00:53:10.287Z,15.92
2022-10-29T00:53:23.086Z,18.50
2022-10-29T00:53:34.584Z,16.85
2022-10-29T00:54:03.094Z,13.93
2022-10-29T00:54:13.883Z,14.64
2022-10-29T00:54:21.509Z,14.19
2022-10-29T00:54:30.734Z,13.73
2022-10-29T00:54:42.147Z,12.14
2022-10-29T00:54:52.223Z,12.74
2022-10-29T00:55:03.636Z,12.66
2022-10-29T00:55:15.917Z,14.18
2022-10-29T00:55:23.395Z,15.63
2022-10-29T00:55:31.496Z,16.23
2022-10-29T00:55:39.013Z,16.07
2022-10-29T00:55:46.701Z,16.62
2022-10-29T00:55:54.212Z,15.28
2022-10-29T00:56:02.267Z,15.90
2022-10-29T00:56:09.873Z,14.20
2022-10-29T00:56:17.774Z,13.33
2022-10-29T00:56:27.305Z,13.55
2022-10-29T00:56:40.510Z,12.93
2022-10-29T00:57:00.857Z,14.54
2022-10-29T00:57:13.049Z,15.05
2022-10-29T00:57:29.997Z,14.26
2022-10-29T00:57:48.668Z,13.07
2022-10-29T00:57:58.645Z,16.33
2022-10-29T00:58:10.473Z,15.47
2022-10-29T00:58:18.412Z,14.71
2022-10-29T00:58:27.005Z,17.25
2022-10-29T00:58:35.139Z,17.86
2022-10-29T00:58:43.488Z,17.47
2022-10-29T00:58:51.355Z,14.10
2022-10-29T00:58:58.948Z,13.87
2022-10-29T00:59:09.015Z,15.23
2022-10-29T00:59:17.656Z,14.18
2022-10-29T00:59:25.605Z,13.93
2022-10-29T00:59:33.731Z,13.15
2022-10-29T00:59:42.620Z,13.12
2022-10-29T00:59:50.638Z,13.21
2022-10-29T00:59:58.288Z,14.27
2022-10-29T01:00:07.318Z,14.92
2022-10-29T01:00:16.393Z,15.73
2022-10-29T01:00:24.139Z,13.57
2022-10-29T01:00:31.694Z,13.77
2022-10-29T01:00:39.185Z,11.72
2022-10-29T01:00:46.709Z,13.32
2022-10-29T01:00:54.225Z,15.54
2022-10-29T01:01:02.555Z,16.78
2022-10-29T01:01:10.625Z,19.60
2022-10-29T01:01:18.496Z,18.53
2022-10-29T01:01:26.180Z,17.68
2022-10-29T01:01:34.055Z,17.13
2022-10-29T01:01:42.287Z,15.52
2022-10-29T01:01:54.227Z,15.07
2022-10-29T01:02:01.850Z,13.63
2022-10-29T01:02:10.712Z,13.50
2022-10-29T01:02:34.352Z,16.26
2022-10-29T01:02:44.187Z,15.03
2022-10-29T01:02:51.991Z,14.45
2022-10-29T01:02:59.820Z,13.32
2022-10-29T01:03:07.823Z,12.72
2022-10-29T01:03:15.451Z,12.12
2022-10-29T01:03:23.113Z,11.28
2022-10-29T01:03:30.602Z,12.55
2022-10-29T01:03:54.449Z,14.00
2022-10-29T01:04:02.920Z,15.86
2022-10-29T01:04:11.416Z,16.83
2022-10-29T01:04:20.970Z,15.41
2022-10-29T01:04:28.539Z,12.43
2022-10-29T01:04:37.784Z,12.52
2022-10-29T01:04:46.538Z,10.57
2022-10-29T01:04:54.576Z,11.29
2022-10-29T01:05:04.448Z,12.30
2022-10-29T01:05:15.207Z,13.82
2022-10-29T01:05:26.032Z,13.87
2022-10-29T01:05:35.786Z,14.77
2022-10-29T01:05:45.517Z,14.03
2022-10-29T01:05:54.382Z,14.32
2022-10-29T01:06:03.983Z,12.78
2022-10-29T01:06:11.689Z,12.80
2022-10-29T01:06:33.860Z,15.14
2022-10-29T01:06:47.366Z,16.71
2022-10-29T01:06:56.031Z,14.82
2022-10-29T01:07:03.750Z,11.64
2022-10-29T01:07:11.899Z,10.72
2022-10-29T01:07:20.862Z,11.31
2022-10-29T01:07:29.189Z,12.43
2022-10-29T01:07:36.649Z,13.46
2022-10-29T01:07:44.377Z,17.08
2022-10-29T01:07:51.977Z,17.95
2022-10-29T01:08:12.121Z,18.91
2022-10-29T01:08:20.811Z,16.85
2022-10-29T01:08:28.272Z,15.30
2022-10-29T01:08:35.697Z,13.62
2022-10-29T01:08:43.135Z,13.07
2022-10-29T01:08:50.529Z,12.70
2022-10-29T01:09:10.505Z,13.91
2022-10-29T01:09:17.911Z,13.40
2022-10-29T01:09:25.403Z,13.62
2022-10-29T01:09:32.870Z,13.84
2022-10-29T01:09:40.701Z,12.82
2022-10-29T01:10:00.748Z,11.93
2022-10-29T01:10:08.809Z,12.77
2022-10-29T01:10:17.680Z,15.87
2022-10-29T01:10:47.937Z,14.12
2022-10-29T01:11:19.768Z,12.95
2022-10-29T01:11:32.751Z,11.69
2022-10-29T01:11:40.069Z,12.27
2022-10-29T01:12:15.807Z,11.87
2022-10-29T01:12:49.063Z,12.02
2022-10-29T01:13:26.172Z,12.20
2022-10-29T01:13:57.940Z,12.34
2022-10-29T01:14:29.741Z,14.14
2022-10-29T01:15:11.152Z,13.20
2022-10-29T01:15:41.349Z,14.56
2022-10-29T01:16:19.776Z,17.75
2022-10-29T01:16:44.332Z,14.04
2022-10-29T01:17:17.741Z,13.30
2022-10-29T01:18:04.629Z,14.23
2022-10-29T01:18:18.061Z,13.68
2022-10-29T01:18:42.185Z,14.14
2022-10-29T01:19:14.105Z,15.52
2022-10-29T01:19:46.350Z,17.16
2022-10-29T01:20:29.821Z,13.60
2022-10-29T01:20:57.597Z,15.11
2022-10-29T01:21:17.796Z,16.30
2022-10-29T01:21:45.330Z,14.55
2022-10-29T01:22:01.357Z,15.82
2022-10-29T01:22:14.240Z,14.34
2022-10-29T01:22:47.061Z,13.69
2022-10-29T01:23:13.047Z,13.71
2022-10-29T01:23:45.535Z,16.13
2022-10-29T01:24:01.846Z,16.66
2022-10-29T01:24:46.933Z,15.00
2022-10-29T01:25:17.941Z,13.55
2022-10-29T01:25:59.734Z,12.69
2022-10-29T01:26:45.448Z,14.55
2022-10-29T01:27:16.838Z,14.31
2022-10-29T01:27:54.664Z,16.98
2022-10-29T01:28:17.020Z,18.10
2022-10-29T01:28:40.194Z,19.41
2022-10-29T01:29:18.122Z,14.44
2022-10-29T01:29:42.234Z,14.09
2022-10-29T01:30:19.633Z,14.84
2022-10-29T01:31:20.860Z,15.26
2022-10-29T01:31:37.136Z,17.13
2022-10-29T01:31:57.045Z,15.37
2022-10-29T01:32:25.262Z,17.81
2022-10-29T01:32:50.819Z,16.80
2022-10-29T01:33:20.633Z,15.15
2022-10-29T01:33:54.393Z,15.10
2022-10-29T01:34:28.207Z,16.46
2022-10-29T01:34:40.472Z,15.34
2022-10-29T01:35:08.113Z,12.93
2022-10-29T01:35:40.471Z,15.68
2022-10-29T01:36:02.168Z,16.23
2022-10-29T01:36:37.956Z,13.74
2022-10-29T01:36:56.130Z,16.96
2022-10-29T01:37:18.486Z,14.79
2022-10-29T01:38:00.028Z,15.19
2022-10-29T01:38:22.268Z,16.39
2022-10-29T01:38:47.699Z,13.36
2022-10-29T01:39:05.262Z,15.55
2022-10-29T01:39:32.250Z,17.69
2022-10-29T01:39:53.284Z,16.83
2022-10-29T01:40:25.968Z,16.60
2022-10-29T01:40:52.019Z,15.31
2022-10-29T01:41:23.094Z,16.40
2022-10-29T01:41:44.320Z,16.33
2022-10-29T01:42:07.865Z,16.96
2022-10-29T01:42:32.441Z,15.86
2022-10-29T01:42:47.543Z,17.65
2022-10-29T01:43:12.441Z,17.96
2022-10-29T01:43:50.197Z,16.79
2022-10-29T01:44:32.031Z,18.21
2022-10-29T01:45:01.209Z,17.09
2022-10-29T01:45:23.374Z,16.84
2022-10-29T01:45:34.737Z,15.14
2022-10-29T01:46:00.569Z,16.36
2022-10-29T01:46:18.131Z,16.30
2022-10-29T01:46:38.241Z,14.85
2022-10-29T01:46:53.869Z,15.29
2022-10-29T01:47:18.485Z,18.74
2022-10-29T01:47:32.081Z,19.39
2022-10-29T01:47:55.770Z,17.80
2022-10-29T01:48:09.981Z,17.33
2022-10-29T01:48:22.228Z,17.73
2022-10-29T01:48:37.485Z,16.85
2022-10-29T01:48:49.152Z,16.31
2022-10-29T01:49:02.333Z,17.05
2022-10-29T01:49:18.470Z,19.55
2022-10-29T01:49:32.695Z,19.20
2022-10-29T01:49:42.881Z,20.02
2022-10-29T01:50:02.678Z,26.70
2022-10-29T01:50:13.491Z,24.75
2022-10-29T01:50:23.619Z,17.89
2022-10-29T01:50:32.250Z,15.88
2022-10-29T01:50:42.614Z,14.95
2022-10-29T01:50:53.925Z,12.74
2022-10-29T01:51:08.432Z,14.07
2022-10-29T01:51:29.631Z,14.14
2022-10-29T01:51:38.538Z,16.70
2022-10-29T01:51:47.520Z,17.08
2022-10-29T01:51:57.488Z,15.23
2022-10-29T01:52:07.767Z,14.54
2022-10-29T01:52:18.142Z,15.33
2022-10-29T01:52:29.652Z,15.90
2022-10-29T01:52:38.985Z,15.79
2022-10-29T01:52:48.861Z,15.50
2022-10-29T01:52:57.277Z,17.10
2022-10-29T01:53:06.159Z,19.73
2022-10-29T01:53:14.318Z,21.03
2022-10-29T01:53:22.788Z,23.82
2022-10-29T01:53:31.184Z,22.69
2022-10-29T01:53:40.661Z,20.67
2022-10-29T01:53:49.304Z,18.63
2022-10-29T01:53:59.319Z,17.32
2022-10-29T01:54:10.572Z,16.40
2022-10-29T01:54:17.966Z,16.10
2022-10-29T01:54:25.476Z,16.32
2022-10-29T01:54:32.833Z,17.13
2022-10-29T01:54:43.157Z,15.60
2022-10-29T01:54:50.525Z,16.10
2022-10-29T01:54:59.223Z,16.13
2022-10-29T01:55:07.308Z,15.93
2022-10-29T01:55:23.135Z,15.37
2022-10-29T01:55:35.460Z,13.27
2022-10-29T01:55:42.942Z,13.24
2022-10-29T01:55:50.306Z,13.56
2022-10-29T01:55:57.764Z,14.44
2022-10-29T01:56:05.352Z,14.32
2022-10-29T01:56:12.919Z,16.78
2022-10-29T01:56:20.302Z,18.62
2022-10-29T01:56:27.955Z,18.03
2022-10-29T01:56:35.291Z,18.32
2022-10-29T01:56:42.801Z,16.20
2022-10-29T01:57:00.602Z,16.63
2022-10-29T01:57:27.003Z,17.11
2022-10-29T01:57:39.577Z,17.36
2022-10-29T01:57:47.307Z,17.51
2022-10-29T01:57:54.941Z,18.53
2022-10-29T01:58:07.118Z,17.13
2022-10-29T01:58:27.655Z,15.50
2022-10-29T01:58:37.976Z,13.58
2022-10-29T01:58:49.538Z,14.87
2022-10-29T01:58:59.442Z,15.14
2022-10-29T01:59:18.218Z,16.38
2022-10-29T01:59:51.252Z,17.92
2022-10-29T02:00:10.180Z,17.94
2022-10-29T02:00:21.010Z,16.24
2022-10-29T02:00:43.291Z,17.48
2022-10-29T02:01:04.968Z,17.46
2022-10-29T02:01:31.885Z,17.91
2022-10-29T02:01:42.428Z,16.13
2022-10-29T02:02:25.137Z,15.69
2022-10-29T02:03:10.622Z,15.86
2022-10-29T02:03:31.399Z,16.09
2022-10-29T02:03:53.633Z,14.89
2022-10-29T02:04:22.760Z,15.56
2022-10-29T02:04:55.023Z,18.96
2022-10-29T02:05:14.415Z,18.66
2022-10-29T02:05:48.914Z,15.98
2022-10-29T02:06:15.488Z,17.04
2022-10-29T02:06:31.758Z,16.51
2022-10-29T02:06:53.279Z,13.96
2022-10-29T02:07:08.190Z,11.80
2022-10-29T02:07:29.609Z,14.54
2022-10-29T02:08:00.152Z,18.80
2022-10-29T02:08:32.445Z,18.64
2022-10-29T02:08:52.224Z,16.84
2022-10-29T02:09:21.275Z,12.70
2022-10-29T02:09:42.094Z,13.85
2022-10-29T02:10:06.775Z,16.63
2022-10-29T02:10:39.942Z,16.89
2022-10-29T02:11:14.848Z,14.86
2022-10-29T02:11:31.000Z,15.11
2022-10-29T02:12:03.696Z,14.14
2022-10-29T02:12:17.185Z,14.11
2022-10-29T02:12:34.983Z,16.67
2022-10-29T02:12:51.800Z,16.06
2022-10-29T02:13:00.016Z,14.45
2022-10-29T02:13:09.869Z,15.20
2022-10-29T02:13:19.251Z,18.53
2022-10-29T02:13:33.584Z,19.66
2022-10-29T02:13:52.203Z,18.21
2022-10-29T02:14:21.427Z,13.93
2022-10-29T02:14:40.560Z,14.94
2022-10-29T02:15:13.513Z,14.64
2022-10-29T02:15:54.615Z,14.98
2022-10-29T02:16:05.863Z,16.94
2022-10-29T02:16:15.525Z,19.47
2022-10-29T02:16:24.845Z,20.60
2022-10-29T02:16:33.265Z,19.36
2022-10-29T02:16:41.106Z,17.70
2022-10-29T02:16:49.699Z,19.88
2022-10-29T02:16:58.655Z,18.40
2022-10-29T02:17:07.623Z,18.33
2022-10-29T02:17:15.145Z,17.20
2022-10-29T02:17:22.664Z,15.22
2022-10-29T02:17:32.835Z,14.17
2022-10-29T02:17:40.333Z,14.07
2022-10-29T02:17:48.336Z,13.27
2022-10-29T02:18:03.807Z,13.83
2022-10-29T02:18:11.493Z,15.45
2022-10-29T02:18:19.426Z,16.02
2022-10-29T02:18:26.964Z,15.88
2022-10-29T02:18:45.892Z,16.07
2022-10-29T02:18:53.508Z,15.76
2022-10-29T02:19:01.262Z,16.64
2022-10-29T02:19:08.748Z,15.30
2022-10-29T02:19:16.322Z,12.73
2022-10-29T02:19:23.943Z,12.85
2022-10-29T02:19:32.809Z,15.50
2022-10-29T02:19:40.304Z,18.37
2022-10-29T02:19:47.734Z,19.53
2022-10-29T02:19:55.170Z,19.80
2022-10-29T02:20:08.019Z,18.30
2022-10-29T02:20:17.098Z,18.20
2022-10-29T02:20:24.469Z,19.10
2022-10-29T02:20:32.182Z,20.28
2022-10-29T02:20:44.697Z,18.93
2022-10-29T02:20:52.352Z,17.41
2022-10-29T02:20:59.723Z,15.03
2022-10-29T02:21:07.171Z,14.08
2022-10-29T02:21:19.255Z,13.90
2022-10-29T02:21:26.987Z,15.56
2022-10-29T02:21:34.389Z,19.70
2022-10-29T02:21:42.757Z,19.67
2022-10-29T02:21:51.840Z,19.24
2022-10-29T02:21:59.676Z,20.70
2022-10-29T02:22:07.179Z,21.53
2022-10-29T02:22:27.066Z,16.80
2022-10-29T02:22:34.630Z,15.03
2022-10-29T02:22:42.493Z,15.16
2022-10-29T02:22:50.005Z,15.45
2022-10-29T02:22:57.937Z,15.82
2022-10-29T02:23:17.766Z,16.74
2022-10-29T02:23:25.448Z,14.70
2022-10-29T02:23:32.959Z,12.66
2022-10-29T02:23:40.468Z,12.60
2022-10-29T02:23:48.411Z,12.76
2022-10-29T02:23:55.948Z,15.67
2022-10-29T02:24:15.918Z,14.29
2022-10-29T02:24:24.985Z,14.50
2022-10-29T02:24:32.539Z,15.39
2022-10-29T02:24:40.118Z,17.44
2022-10-29T02:24:47.596Z,18.90
2022-10-29T02:25:08.671Z,16.90
2022-10-29T02:25:16.217Z,17.17
2022-10-29T02:25:24.104Z,17.20
2022-10-29T02:25:31.575Z,19.67
2022-10-29T02:25:39.951Z,19.73
2022-10-29T02:25:47.908Z,17.55
2022-10-29T02:26:07.654Z,17.00
2022-10-29T02:26:15.467Z,17.83
2022-10-29T02:26:22.925Z,17.00
2022-10-29T02:26:30.385Z,17.27
2022-10-29T02:26:37.738Z,15.86
2022-10-29T02:26:57.483Z,14.52
2022-10-29T02:27:05.035Z,15.57
2022-10-29T02:27:12.484Z,16.97
2022-10-29T02:27:20.011Z,17.14
2022-10-29T02:27:27.390Z,16.90
2022-10-29T02:27:47.356Z,17.79
2022-10-29T02:27:55.127Z,20.60
2022-10-29T02:28:02.800Z,19.97
2022-10-29T02:28:10.345Z,18.70
2022-10-29T02:28:17.840Z,17.58
2022-10-29T02:28:37.707Z,15.11
2022-10-29T02:28:45.312Z,15.00
2022-10-29T02:28:52.680Z,15.20
2022-10-29T02:29:00.180Z,16.30
2022-10-29T02:29:07.560Z,17.53
2022-10-29T02:29:27.360Z,17.83
2022-10-29T02:29:35.046Z,16.96
2022-10-29T02:29:42.507Z,15.83
2022-10-29T02:29:49.888Z,15.30
2022-10-29T02:29:57.324Z,16.90
2022-10-29T02:30:18.113Z,16.21
2022-10-29T02:30:25.617Z,14.33
2022-10-29T02:30:33.057Z,13.57
2022-10-29T02:30:40.571Z,13.47
2022-10-29T02:30:48.050Z,12.50
2022-10-29T02:31:07.727Z,14.64
2022-10-29T02:31:15.155Z,17.63
2022-10-29T02:31:22.603Z,20.23
2022-10-29T02:31:30.227Z,21.75
2022-10-29T02:31:37.620Z,20.62
2022-10-29T02:31:57.337Z,21.40
2022-10-29T02:32:04.985Z,21.74
2022-10-29T02:32:12.545Z,19.58
2022-10-29T02:32:20.057Z,16.90
2022-10-29T02:32:28.029Z,15.98
2022-10-29T02:32:47.896Z,16.46
2022-10-29T02:32:55.642Z,15.17
2022-10-29T02:33:03.328Z,14.03
2022-10-29T02:33:10.848Z,13.55
2022-10-29T02:33:18.364Z,14.22
2022-10-29T02:33:26.064Z,15.43
2022-10-29T02:33:45.959Z,17.65
2022-10-29T02:33:53.316Z,18.46
2022-10-29T02:34:00.815Z,16.65
2022-10-29T02:34:08.347Z,17.04
2022-10-29T02:34:15.878Z,15.95
2022-10-29T02:34:35.487Z,15.24
2022-10-29T02:34:42.870Z,14.87
2022-10-29T02:34:50.311Z,16.67
2022-10-29T02:34:57.701Z,16.23
2022-10-29T02:35:08.716Z,18.57
2022-10-29T02:35:16.134Z,17.74
2022-10-29T02:35:35.823Z,17.70
2022-10-29T02:35:43.289Z,17.63
2022-10-29T02:35:50.737Z,17.83
2022-10-29T02:35:58.270Z,16.13
2022-10-29T02:36:05.976Z,16.22
2022-10-29T02:36:25.874Z,15.81
2022-10-29T02:36:33.312Z,15.23
2022-10-29T02:36:40.681Z,16.13
2022-10-29T02:36:48.173Z,14.97
2022-10-29T02:37:07.802Z,17.08
2022-10-29T02:37:15.323Z,17.28
2022-10-29T02:37:22.728Z,17.40
2022-10-29T02:37:30.369Z,14.68
2022-10-29T02:37:38.166Z,14.53
2022-10-29T02:37:57.872Z,15.50
2022-10-29T02:38:05.251Z,16.94
2022-10-29T02:38:12.721Z,15.77
2022-10-29T02:38:20.065Z,14.43
2022-10-29T02:38:27.476Z,13.53
2022-10-29T02:38:47.128Z,13.20
2022-10-29T02:38:54.520Z,13.68
2022-10-29T02:39:04.504Z,14.97
2022-10-29T02:39:11.941Z,15.29
2022-10-29T02:39:19.342Z,14.80
2022-10-29T02:39:26.702Z,15.37
2022-10-29T02:39:41.723Z,17.80
2022-10-29T02:39:49.105Z,19.60
2022-10-29T02:39:56.611Z,18.83
2022-10-29T02:40:17.113Z,15.20
2022-10-29T02:40:24.542Z,13.60
2022-10-29T02:40:32.055Z,13.62
2022-10-29T02:40:39.476Z,13.68
2022-10-29T02:40:46.863Z,13.27
2022-10-29T02:41:06.584Z,17.08
2022-10-29T02:41:13.900Z,18.34
2022-10-29T02:41:21.258Z,18.60
2022-10-29T02:41:28.672Z,17.20
2022-10-29T02:41:36.040Z,15.53
2022-10-29T02:41:57.953Z,15.46
2022-10-29T02:42:05.462Z,14.47
2022-10-29T02:42:12.901Z,13.03
2022-10-29T02:42:20.354Z,12.97
2022-10-29T02:42:28.027Z,14.13
2022-10-29T02:42:48.080Z,15.24
2022-10-29T02:42:56.505Z,14.38
2022-10-29T02:43:04.199Z,14.92
2022-10-29T02:43:11.725Z,14.88
2022-10-29T02:43:31.640Z,14.60
2022-10-29T02:43:39.129Z,13.70
2022-10-29T02:43:46.625Z,14.90